createdAt,value
2017-05-29T00:01:43.660Z,22.30
2017-05-29T00:04:13.884Z,22.20
2017-05-29T00:06:44.087Z,22.30
2017-05-29T00:09:14.328Z,22.30
2017-05-29T00:11:44.551Z,22.20
2017-05-29T00:14:14.744Z,22.20
2017-05-29T00:16:44.948Z,22.10
2017-05-29T00:19:15.152Z,22.10
2017-05-29T00:21:45.467Z,22.10
2017-05-29T00:24:15.679Z,22.10
2017-05-29T00:26:45.948Z,22.10
2017-05-29T00:29:16.140Z,22.10
2017-05-29T00:31:46.361Z,22.10
2017-05-29T00:34:16.587Z,22.10
2017-05-29T00:36:46.780Z,22.10
2017-05-29T00:39:16.992Z,22.10
2017-05-29T00:41:47.175Z,22.10
2017-05-29T00:44:17.413Z,22.10
2017-05-29T00:46:47.412Z,22.10
2017-05-29T00:49:17.662Z,22.10
2017-05-29T00:51:47.860Z,22.10
2017-05-29T00:54:18.112Z,22.10
2017-05-29T00:56:48.295Z,22.10
2017-05-29T00:59:18.515Z,22.10
2017-05-29T01:01:48.728Z,22.10
2017-05-29T01:04:18.959Z,22.10
2017-05-29T01:06:49.170Z,22.10
2017-05-29T01:09:19.413Z,22.10
2017-05-29T01:11:49.600Z,22.00
2017-05-29T01:14:19.818Z,22.00
2017-05-29T01:16:50.172Z,22.00
2017-05-29T01:19:20.356Z,22.00
2017-05-29T01:21:50.364Z,22.00
2017-05-29T01:24:20.586Z,22.00
2017-05-29T01:26:50.811Z,21.90
2017-05-29T01:29:21.020Z,22.00
2017-05-29T01:31:51.274Z,21.90
2017-05-29T01:34:21.455Z,21.90
2017-05-29T01:36:51.499Z,21.90
2017-05-29T01:39:21.356Z,21.90
2017-05-29T01:41:51.574Z,21.90
2017-05-29T01:44:21.439Z,21.90
2017-05-29T01:46:51.652Z,21.90
2017-05-29T01:49:21.884Z,21.90
2017-05-29T01:51:51.876Z,21.90
2017-05-29T01:54:22.129Z,21.90
2017-05-29T01:56:52.308Z,21.90
2017-05-29T01:59:22.518Z,21.90
2017-05-29T02:01:52.720Z,21.90
2017-05-29T02:04:22.707Z,21.80
2017-05-29T02:06:52.715Z,21.80
2017-05-29T02:09:22.697Z,21.80
2017-05-29T02:11:52.710Z,21.80
2017-05-29T02:14:22.693Z,21.70
2017-05-29T02:16:52.729Z,21.70
2017-05-29T02:19:22.732Z,21.60
2017-05-29T02:21:52.760Z,21.60
2017-05-29T02:24:22.912Z,21.50
2017-05-29T02:26:52.935Z,21.50
2017-05-29T02:29:22.918Z,21.50
2017-05-29T02:31:52.961Z,21.50
2017-05-29T02:34:22.940Z,21.40
2017-05-29T02:36:52.968Z,21.40
2017-05-29T02:39:22.951Z,21.30
2017-05-29T02:41:52.968Z,21.20
2017-05-29T02:44:22.987Z,21.20
2017-05-29T02:46:52.962Z,21.20
2017-05-29T02:49:22.964Z,21.20
2017-05-29T02:51:52.934Z,21.10
2017-05-29T02:54:22.936Z,21.00
2017-05-29T02:56:52.938Z,21.00
2017-05-29T02:59:22.937Z,21.00
2017-05-29T03:01:52.924Z,21.00
2017-05-29T03:04:22.924Z,20.90
2017-05-29T03:06:52.929Z,21.00
2017-05-29T03:09:22.928Z,21.00
2017-05-29T03:11:52.902Z,21.00
2017-05-29T03:14:22.912Z,21.00
2017-05-29T03:16:52.903Z,21.00
2017-05-29T03:19:22.902Z,21.00
2017-05-29T03:21:52.886Z,21.00
2017-05-29T03:24:22.906Z,21.00
2017-05-29T03:26:52.872Z,21.00
2017-05-29T03:29:22.855Z,21.00
2017-05-29T03:31:52.827Z,21.00
2017-05-29T03:34:22.851Z,21.00
2017-05-29T03:36:52.851Z,21.10
2017-05-29T03:39:23.019Z,21.10
2017-05-29T03:41:53.228Z,21.10
2017-05-29T03:44:23.267Z,21.00
2017-05-29T03:46:53.527Z,21.00
2017-05-29T03:49:23.549Z,21.00
2017-05-29T03:51:53.545Z,21.20
2017-05-29T03:54:23.555Z,21.20
2017-05-29T03:56:53.544Z,21.30
2017-05-29T03:59:23.560Z,21.30
2017-05-29T04:01:53.547Z,21.30
2017-05-29T04:04:23.552Z,21.40
2017-05-29T04:06:53.582Z,21.40
2017-05-29T04:09:23.610Z,21.50
2017-05-29T04:11:53.832Z,21.50
2017-05-29T04:14:23.827Z,21.50
2017-05-29T04:16:53.840Z,21.60
2017-05-29T04:19:23.885Z,21.60
2017-05-29T04:21:53.907Z,21.60
2017-05-29T04:24:23.920Z,21.60
2017-05-29T04:26:53.959Z,21.50
2017-05-29T04:29:23.955Z,21.60
2017-05-29T04:31:53.959Z,21.50
2017-05-29T04:34:23.974Z,21.70
2017-05-29T04:36:53.942Z,21.70
2017-05-29T04:39:23.948Z,21.80
2017-05-29T04:41:53.933Z,21.90
2017-05-29T04:44:23.605Z,21.90
2017-05-29T04:46:53.679Z,22.10
2017-05-29T04:49:23.698Z,22.20
2017-05-29T04:51:53.683Z,22.30
2017-05-29T04:54:23.777Z,22.40
2017-05-29T04:56:53.772Z,22.50
2017-05-29T04:59:23.821Z,22.60
2017-05-29T05:01:53.825Z,22.70
2017-05-29T05:04:23.824Z,22.70
2017-05-29T05:06:53.830Z,22.80
2017-05-29T05:09:23.819Z,22.90
2017-05-29T05:11:53.851Z,23.00
2017-05-29T05:14:23.849Z,23.00
2017-05-29T05:16:53.843Z,23.10
2017-05-29T05:19:23.864Z,23.10
2017-05-29T05:21:53.881Z,23.10
2017-05-29T05:24:23.896Z,23.10
2017-05-29T05:26:53.875Z,23.30
2017-05-29T05:29:23.896Z,23.30
2017-05-29T05:31:53.879Z,23.40
2017-05-29T05:34:23.864Z,23.70
2017-05-29T05:36:53.876Z,23.90
2017-05-29T05:39:23.879Z,24.30
2017-05-29T05:41:53.888Z,24.80
2017-05-29T05:44:23.851Z,25.20
2017-05-29T05:46:53.872Z,25.60
2017-05-29T05:49:23.852Z,25.90
2017-05-29T05:51:53.882Z,26.00
2017-05-29T05:54:23.890Z,25.90
2017-05-29T05:56:53.937Z,26.20
2017-05-29T05:59:23.921Z,26.50
2017-05-29T06:01:53.939Z,26.90
2017-05-29T06:04:23.919Z,27.10
2017-05-29T06:06:53.923Z,27.30
2017-05-29T06:09:23.935Z,27.00
2017-05-29T06:11:53.917Z,27.30
2017-05-29T06:14:24.166Z,27.50
2017-05-29T06:16:54.188Z,27.30
2017-05-29T06:19:24.240Z,26.80
2017-05-29T06:21:54.201Z,26.30
2017-05-29T06:24:24.238Z,26.10
2017-05-29T06:26:54.202Z,26.10
2017-05-29T06:29:25.353Z,26.40
2017-05-29T06:31:55.513Z,26.40
2017-05-29T06:34:26.837Z,26.50
2017-05-29T06:36:56.884Z,26.80
2017-05-29T06:39:26.919Z,27.40
2017-05-29T06:41:56.879Z,27.80
2017-05-29T06:44:26.887Z,27.90
2017-05-29T06:46:56.984Z,28.30
2017-05-29T06:49:27.040Z,28.50
2017-05-29T06:51:57.361Z,28.70
2017-05-29T06:54:27.840Z,28.60
2017-05-29T06:56:57.850Z,29.00
2017-05-29T06:59:27.819Z,29.30
2017-05-29T07:01:57.836Z,29.50
2017-05-29T07:04:27.800Z,29.10
2017-05-29T07:06:57.823Z,28.60
2017-05-29T07:09:27.846Z,28.60
2017-05-29T07:11:57.935Z,28.60
2017-05-29T07:14:27.921Z,28.50
2017-05-29T07:16:57.935Z,28.80
2017-05-29T07:19:27.915Z,28.90
2017-05-29T07:21:57.948Z,29.00
2017-05-29T07:24:27.930Z,29.20
2017-05-29T07:26:57.949Z,29.50
2017-05-29T07:29:27.950Z,29.40
2017-05-29T07:31:59.231Z,29.80
2017-05-29T07:34:29.228Z,29.90
2017-05-29T07:36:59.234Z,30.40
2017-05-29T07:39:29.232Z,30.60
2017-05-29T07:41:59.248Z,30.70
2017-05-29T07:44:29.271Z,30.40
2017-05-29T07:46:59.263Z,30.10
2017-05-29T07:49:29.259Z,29.80
2017-05-29T07:51:59.248Z,29.70
2017-05-29T07:54:29.276Z,30.40
2017-05-29T07:56:59.259Z,31.00
2017-05-29T07:59:29.269Z,31.20
2017-05-29T08:01:59.280Z,31.10
2017-05-29T08:04:29.247Z,30.80
2017-05-29T08:06:59.353Z,31.00
2017-05-29T08:09:29.351Z,31.20
2017-05-29T08:11:59.370Z,31.20
2017-05-29T08:14:29.350Z,31.00
2017-05-29T08:16:59.365Z,31.20
2017-05-29T08:19:29.380Z,31.20
2017-05-29T08:21:59.432Z,31.20
2017-05-29T08:24:29.440Z,31.40
2017-05-29T08:27:00.142Z,31.60
2017-05-29T08:29:30.121Z,32.00
2017-05-29T08:32:00.104Z,32.30
2017-05-29T08:34:30.097Z,31.80
2017-05-29T08:37:00.070Z,31.40
2017-05-29T08:39:30.068Z,31.40
2017-05-29T08:41:59.858Z,31.70
2017-05-29T08:44:29.934Z,31.70
2017-05-29T08:46:59.909Z,31.80
2017-05-29T08:49:29.939Z,32.10
2017-05-29T08:51:59.918Z,31.80
2017-05-29T08:54:29.937Z,31.90
2017-05-29T08:56:59.971Z,32.50
2017-05-29T08:59:30.025Z,32.70
2017-05-29T09:02:00.109Z,32.70
2017-05-29T09:04:30.089Z,32.80
2017-05-29T09:07:00.439Z,32.90
2017-05-29T09:09:30.523Z,32.60
2017-05-29T09:12:00.543Z,32.50
2017-05-29T09:14:30.528Z,32.60
2017-05-29T09:17:00.556Z,32.90
2017-05-29T09:19:30.684Z,33.30
2017-05-29T09:22:00.758Z,33.70
2017-05-29T09:24:30.901Z,33.70
2017-05-29T09:27:00.904Z,34.30
2017-05-29T09:29:30.936Z,34.40
2017-05-29T09:32:00.915Z,34.00
2017-05-29T09:34:31.011Z,33.80
2017-05-29T09:37:01.004Z,33.70
2017-05-29T09:39:31.034Z,33.60
2017-05-29T09:42:01.025Z,33.20
2017-05-29T09:44:31.024Z,32.70
2017-05-29T09:47:01.029Z,33.40
2017-05-29T09:49:31.008Z,33.60
2017-05-29T09:52:01.011Z,33.90
2017-05-29T09:54:31.025Z,34.20
2017-05-29T09:57:01.056Z,34.20
2017-05-29T09:59:31.038Z,33.30
2017-05-29T10:02:01.061Z,32.50
2017-05-29T10:04:31.051Z,32.70
2017-05-29T10:07:01.062Z,33.00
2017-05-29T10:09:31.056Z,33.50
2017-05-29T10:12:01.214Z,33.60
2017-05-29T10:14:31.194Z,33.90
2017-05-29T10:17:01.270Z,34.10
2017-05-29T10:19:31.279Z,34.90
2017-05-29T10:22:01.292Z,35.40
2017-05-29T10:24:31.283Z,35.10
2017-05-29T10:27:01.304Z,34.50
2017-05-29T10:29:31.292Z,34.40
2017-05-29T10:32:01.287Z,35.10
2017-05-29T10:34:31.280Z,35.50
2017-05-29T10:37:01.276Z,35.60
2017-05-29T10:39:31.263Z,34.90
2017-05-29T10:42:01.244Z,34.50
2017-05-29T10:44:31.272Z,34.30
2017-05-29T10:47:01.248Z,33.80
2017-05-29T10:49:31.323Z,34.20
2017-05-29T10:52:01.291Z,34.70
2017-05-29T10:54:31.346Z,34.90
2017-05-29T10:57:01.334Z,34.90
2017-05-29T10:59:31.360Z,35.10
2017-05-29T11:02:01.340Z,35.80
2017-05-29T11:04:31.365Z,35.70
2017-05-29T11:07:01.372Z,36.20
2017-05-29T11:09:31.389Z,36.30
2017-05-29T11:12:01.375Z,36.50
2017-05-29T11:14:31.063Z,36.40
2017-05-29T11:17:01.078Z,36.70
2017-05-29T11:19:31.115Z,36.50
2017-05-29T11:22:01.087Z,36.70
2017-05-29T11:24:31.116Z,37.10
2017-05-29T11:27:01.108Z,37.10
2017-05-29T11:29:31.087Z,37.00
2017-05-29T11:32:01.082Z,35.80
2017-05-29T11:34:31.382Z,35.30
2017-05-29T11:37:01.392Z,35.50
2017-05-29T11:39:31.396Z,35.40
2017-05-29T11:42:01.411Z,36.00
2017-05-29T11:44:31.422Z,36.10
2017-05-29T11:47:01.391Z,36.50
2017-05-29T11:49:31.422Z,35.70
2017-05-29T11:52:01.439Z,35.20
2017-05-29T11:54:31.490Z,34.70
2017-05-29T11:57:01.131Z,35.00
2017-05-29T11:59:31.179Z,35.60
2017-05-29T12:02:01.157Z,36.10
2017-05-29T12:04:31.203Z,36.60
2017-05-29T12:07:01.198Z,36.00
2017-05-29T12:09:31.216Z,36.60
2017-05-29T12:12:01.197Z,37.10
2017-05-29T12:14:31.394Z,37.70
2017-05-29T12:17:01.370Z,37.80
2017-05-29T12:19:31.566Z,36.90
2017-05-29T12:22:01.564Z,36.10
2017-05-29T12:24:31.717Z,36.30
2017-05-29T12:27:01.710Z,35.60
2017-05-29T12:29:31.700Z,35.80
2017-05-29T12:32:01.810Z,35.80
2017-05-29T12:34:31.832Z,36.70
2017-05-29T12:37:01.899Z,37.70
2017-05-29T12:39:31.863Z,38.20
2017-05-29T12:42:01.910Z,38.70
2017-05-29T12:44:31.920Z,38.20
2017-05-29T12:47:01.938Z,38.10
2017-05-29T12:49:31.939Z,38.10
2017-05-29T12:52:01.920Z,39.10
2017-05-29T12:54:31.909Z,39.20
2017-05-29T12:57:01.890Z,39.80
2017-05-29T12:59:31.887Z,39.60
2017-05-29T13:02:01.860Z,38.50
2017-05-29T13:04:31.926Z,37.00
2017-05-29T13:07:01.910Z,35.70
2017-05-29T13:09:31.963Z,35.00
2017-05-29T13:12:01.935Z,34.80
2017-05-29T13:14:31.969Z,35.10
2017-05-29T13:17:01.956Z,36.10
2017-05-29T13:19:31.984Z,37.10
2017-05-29T13:25:01.052Z,37.10
2017-05-29T13:27:31.039Z,37.50
2017-05-29T13:30:01.088Z,37.40
2017-05-29T13:32:31.068Z,38.40
2017-05-29T13:35:01.084Z,38.40
2017-05-29T13:37:31.068Z,38.80
2017-05-29T13:40:01.158Z,39.10
2017-05-29T13:42:31.246Z,38.10
2017-05-29T13:45:01.246Z,37.10
2017-05-29T13:47:31.286Z,36.50
2017-05-29T13:50:01.298Z,37.00
2017-05-29T13:52:31.300Z,37.00
2017-05-29T13:55:01.284Z,36.90
2017-05-29T13:57:31.305Z,37.60
2017-05-29T14:00:01.288Z,37.80
2017-05-29T14:02:31.305Z,38.10
2017-05-29T14:05:01.287Z,38.50
2017-05-29T14:07:31.363Z,38.10
2017-05-29T14:10:01.344Z,37.30
2017-05-29T14:12:31.384Z,36.40
2017-05-29T14:15:01.414Z,36.00
2017-05-29T14:17:31.452Z,35.10
2017-05-29T14:20:01.436Z,34.00
2017-05-29T14:22:31.467Z,34.00
2017-05-29T14:25:01.447Z,33.60
2017-05-29T14:27:31.449Z,33.20
2017-05-29T14:30:01.452Z,33.20
2017-05-29T14:32:31.456Z,33.00
2017-05-29T14:35:01.454Z,33.00
2017-05-29T14:37:31.423Z,33.10
2017-05-29T14:40:01.419Z,33.20
2017-05-29T14:42:31.439Z,33.30
2017-05-29T14:45:01.466Z,33.00
2017-05-29T14:47:31.443Z,32.60
2017-05-29T14:50:01.464Z,32.50
2017-05-29T14:52:31.452Z,32.30
2017-05-29T14:55:01.471Z,32.40
2017-05-29T14:57:31.444Z,32.60
2017-05-29T15:00:01.470Z,32.60
2017-05-29T15:02:31.456Z,32.40
2017-05-29T15:05:01.496Z,32.30
2017-05-29T15:07:31.475Z,32.00
2017-05-29T15:10:01.578Z,32.00
2017-05-29T15:12:31.575Z,32.10
2017-05-29T15:15:01.563Z,31.90
2017-05-29T15:17:31.555Z,31.90
2017-05-29T15:20:01.572Z,31.80
2017-05-29T15:22:31.599Z,31.80
2017-05-29T15:25:01.597Z,31.50
2017-05-29T15:27:31.599Z,31.50
2017-05-29T15:30:01.580Z,31.60
2017-05-29T15:32:31.664Z,31.70
2017-05-29T15:35:02.346Z,31.70
2017-05-29T15:37:32.374Z,31.50
2017-05-29T15:40:02.345Z,31.40
2017-05-29T15:42:32.348Z,31.30
2017-05-29T15:45:02.377Z,31.00
2017-05-29T15:47:32.388Z,31.10
2017-05-29T15:50:02.373Z,31.20
2017-05-29T15:52:32.405Z,31.30
2017-05-29T15:55:02.391Z,31.40
2017-05-29T15:57:32.402Z,31.30
2017-05-29T16:00:02.392Z,31.30
2017-05-29T16:02:32.379Z,31.30
2017-05-29T16:05:02.382Z,31.00
2017-05-29T16:07:32.363Z,30.90
2017-05-29T16:10:02.359Z,31.00
2017-05-29T16:12:32.344Z,30.90
2017-05-29T16:15:01.601Z,30.90
2017-05-29T16:17:31.576Z,30.70
2017-05-29T16:20:01.612Z,30.60
2017-05-29T16:22:31.586Z,30.60
2017-05-29T16:25:01.573Z,30.60
2017-05-29T16:27:31.621Z,30.70
2017-05-29T16:30:01.615Z,30.60
2017-05-29T16:32:31.623Z,30.60
2017-05-29T16:35:01.603Z,30.60
2017-05-29T16:37:31.660Z,30.50
2017-05-29T16:40:01.637Z,30.50
2017-05-29T16:42:31.698Z,30.50
2017-05-29T16:45:01.757Z,30.50
2017-05-29T16:47:31.785Z,30.40
2017-05-29T16:50:01.766Z,30.40
2017-05-29T16:52:31.774Z,30.30
2017-05-29T16:55:01.867Z,30.40
2017-05-29T16:57:31.989Z,30.30
2017-05-29T17:00:01.969Z,30.30
2017-05-29T17:02:32.055Z,30.30
2017-05-29T17:05:02.054Z,30.30
2017-05-29T17:07:32.040Z,30.30
2017-05-29T17:10:02.052Z,30.20
2017-05-29T17:12:32.043Z,30.20
2017-05-29T17:15:02.041Z,30.30
2017-05-29T17:17:31.709Z,30.30
2017-05-29T17:20:01.711Z,30.10
2017-05-29T17:22:31.708Z,30.10
2017-05-29T17:25:01.733Z,30.00
2017-05-29T17:27:31.788Z,29.90
2017-05-29T17:30:01.804Z,29.80
2017-05-29T17:32:31.788Z,29.70
2017-05-29T17:35:01.831Z,29.70
2017-05-29T17:37:31.816Z,29.60
2017-05-29T17:40:01.843Z,29.60
2017-05-29T17:42:31.838Z,29.50
2017-05-29T17:45:01.837Z,29.40
2017-05-29T17:47:31.869Z,29.20
2017-05-29T17:50:01.857Z,29.20
2017-05-29T17:52:31.857Z,29.10
2017-05-29T17:55:01.979Z,29.00
2017-05-29T17:57:32.073Z,28.90
2017-05-29T18:00:02.059Z,28.90
2017-05-29T18:02:32.088Z,28.90
2017-05-29T18:05:02.088Z,28.70
2017-05-29T18:07:32.114Z,28.70
2017-05-29T18:10:02.091Z,28.60
2017-05-29T18:12:32.090Z,28.60
2017-05-29T18:15:02.108Z,28.50
2017-05-29T18:17:32.113Z,28.60
2017-05-29T18:20:02.126Z,28.50
2017-05-29T18:22:32.117Z,28.50
2017-05-29T18:25:02.175Z,28.50
2017-05-29T18:27:32.163Z,28.50
2017-05-29T18:30:02.206Z,28.40
2017-05-29T18:32:32.179Z,28.40
2017-05-29T18:35:02.213Z,28.30
2017-05-29T18:37:32.212Z,28.20
2017-05-29T18:40:02.250Z,28.20
2017-05-29T18:42:32.237Z,28.10
2017-05-29T18:45:02.301Z,28.10
2017-05-29T18:47:32.996Z,28.00
2017-05-29T18:50:03.056Z,27.90
2017-05-29T18:52:32.874Z,27.80
2017-05-29T18:55:02.901Z,27.70
2017-05-29T18:57:32.875Z,27.60
2017-05-29T19:00:02.950Z,27.60
2017-05-29T19:02:32.945Z,27.50
2017-05-29T19:05:02.969Z,27.40
2017-05-29T19:07:32.976Z,27.30
2017-05-29T19:10:03.021Z,27.20
2017-05-29T19:12:33.010Z,27.10
2017-05-29T19:15:03.058Z,27.00
2017-05-29T19:17:33.060Z,26.90
2017-05-29T19:20:03.166Z,26.90
2017-05-29T19:22:33.156Z,26.80
2017-05-29T19:25:03.180Z,26.70
2017-05-29T19:27:33.186Z,26.70
2017-05-29T19:30:03.219Z,26.60
2017-05-29T19:32:33.208Z,26.60
2017-05-29T19:35:03.241Z,26.50
2017-05-29T19:37:33.251Z,26.40
2017-05-29T19:40:03.287Z,26.40
2017-05-29T19:42:33.267Z,26.40
2017-05-29T19:45:03.326Z,26.40
2017-05-29T19:47:33.301Z,26.30
2017-05-29T19:50:03.526Z,26.30
2017-05-29T19:52:33.537Z,26.20
2017-05-29T19:55:03.563Z,26.10
2017-05-29T19:57:33.541Z,26.00
2017-05-29T20:00:03.568Z,26.00
2017-05-29T20:02:33.556Z,26.00
2017-05-29T20:05:03.571Z,25.90
2017-05-29T20:07:33.584Z,25.80
2017-05-29T20:10:03.286Z,25.80
2017-05-29T20:12:33.292Z,25.80
2017-05-29T20:15:03.315Z,25.80
2017-05-29T20:17:33.115Z,25.80
2017-05-29T20:20:03.148Z,25.80
2017-05-29T20:22:33.139Z,25.70
2017-05-29T20:25:03.260Z,25.60
2017-05-29T20:27:33.258Z,25.40
2017-05-29T20:30:03.259Z,25.30
2017-05-29T20:32:33.259Z,25.20
2017-05-29T20:35:03.385Z,25.20
2017-05-29T20:37:33.518Z,25.10
2017-05-29T20:40:03.602Z,25.00
2017-05-29T20:42:34.173Z,25.00
2017-05-29T20:45:04.532Z,24.90
2017-05-29T20:47:35.335Z,24.80
2017-05-29T20:50:05.318Z,24.70
2017-05-29T20:52:35.329Z,24.70
2017-05-29T20:55:05.601Z,24.60
2017-05-29T20:57:35.633Z,24.50
2017-05-29T21:00:05.611Z,24.50
2017-05-29T21:02:35.751Z,24.50
2017-05-29T21:05:05.716Z,24.40
2017-05-29T21:07:36.469Z,24.40
2017-05-29T21:10:06.477Z,24.30
2017-05-29T21:12:36.483Z,24.20
2017-05-29T21:15:06.470Z,24.10
2017-05-29T21:17:36.514Z,24.10
2017-05-29T21:20:06.636Z,24.10
2017-05-29T21:22:36.700Z,24.00
2017-05-29T21:25:06.711Z,24.00
2017-05-29T21:27:36.753Z,24.00
2017-05-29T21:30:06.928Z,24.00
2017-05-29T21:32:36.945Z,24.00
2017-05-29T21:35:06.983Z,23.90
2017-05-29T21:37:37.019Z,23.90
2017-05-29T21:40:07.125Z,23.80
2017-05-29T21:42:37.135Z,23.80
2017-05-29T21:45:07.157Z,23.80
2017-05-29T21:47:37.228Z,23.70
2017-05-29T21:50:07.314Z,23.70
2017-05-29T21:52:37.328Z,23.60
2017-05-29T21:55:07.352Z,23.60
2017-05-29T21:57:37.340Z,23.60
2017-05-29T22:00:06.643Z,23.50
2017-05-29T22:02:36.637Z,23.40
2017-05-29T22:05:06.615Z,23.40
2017-05-29T22:07:36.632Z,23.40
2017-05-29T22:10:06.607Z,23.30
2017-05-29T22:12:36.668Z,23.30
2017-05-29T22:15:06.674Z,23.20
2017-05-29T22:17:36.676Z,23.20
2017-05-29T22:20:06.752Z,23.20
2017-05-29T22:22:36.752Z,23.10
2017-05-29T22:25:06.755Z,23.00
2017-05-29T22:27:36.756Z,23.00
2017-05-29T22:30:06.747Z,22.90
2017-05-29T22:32:36.728Z,22.90
2017-05-29T22:35:06.742Z,22.90
2017-05-29T22:37:36.743Z,22.90
2017-05-29T22:40:06.788Z,22.90
2017-05-29T22:42:36.770Z,22.90
2017-05-29T22:45:06.802Z,22.90
2017-05-29T22:47:36.817Z,22.90
2017-05-29T22:50:06.823Z,22.80
2017-05-29T22:52:36.826Z,22.80
2017-05-29T22:55:06.827Z,22.90
2017-05-29T22:57:36.844Z,22.80
2017-05-29T23:00:06.840Z,22.90
2017-05-29T23:02:36.846Z,22.90
2017-05-29T23:05:06.887Z,22.80
2017-05-29T23:07:36.926Z,22.70
2017-05-29T23:10:06.958Z,22.70
2017-05-29T23:12:36.978Z,22.30
2017-05-29T23:15:06.964Z,22.10
2017-05-29T23:17:36.994Z,21.90
2017-05-29T23:20:07.007Z,21.90
2017-05-29T23:22:36.994Z,21.90
2017-05-29T23:25:06.994Z,21.80
2017-05-29T23:27:36.979Z,21.70
2017-05-29T23:30:06.998Z,21.60
2017-05-29T23:32:36.995Z,21.40
2017-05-29T23:35:07.021Z,21.50
2017-05-29T23:37:36.987Z,21.40
2017-05-29T23:40:06.996Z,21.50
2017-05-29T23:42:37.004Z,21.50
2017-05-29T23:45:07.031Z,21.60
2017-05-29T23:47:37.047Z,21.60
2017-05-29T23:50:07.019Z,21.60
2017-05-29T23:52:37.040Z,21.60
2017-05-29T23:55:07.031Z,21.70
2017-05-29T23:57:37.040Z,21.70
